Friday, July 20, 2018, 12:28 PM EDT
Back to Local

KW99, Petersburg, Grant County Airport

Location: Petersburg, WV, United States Lat: 38.983
Local Time: 12:28 PM EDT (16:28 GMT) Lon: -79.133
Time Zone: US/Eastern Elev: 961 ft

Show me the last for .
Show Decoded

2018-07-20 11:35 METAR KW99 201535Z AUTO 13003KT 10SM SCT046 SCT050 SCT120 26/18 A3008 RMK AO2
                 T02590181 =
2018-07-20 11:15 METAR KW99 201515Z AUTO 12006KT 10SM CLR 26/18 RMK AO2 T02610182 =
2018-07-20 10:55 METAR KW99 201455Z AUTO 10006KT 10SM CLR 25/17 A3009 RMK AO2 T02510174 =
2018-07-20 10:35 METAR KW99 201435Z AUTO 08005KT 10SM CLR 25/17 A3009 RMK AO2 LTG DSNT W
                 T02480173 =
2018-07-20 10:15 METAR KW99 201415Z AUTO 00000KT 10SM CLR 23/17 A3010 RMK AO2 T02310170 =
2018-07-20 09:55 METAR KW99 201355Z AUTO 00000KT 10SM CLR 22/17 A3011 RMK AO2 LTG DSNT W
                 T02160165 =
2018-07-20 09:35 METAR KW99 201335Z AUTO 00000KT 10SM CLR 20/16 A3012 RMK AO2 T01990161 =
2018-07-20 09:15 METAR KW99 201315Z AUTO 00000KT 10SM CLR 19/16 A3012 RMK AO2 T01880158 =
2018-07-20 08:55 METAR KW99 201255Z AUTO 00000KT 10SM CLR 18/16 A3012 RMK AO2 T01770155 =
2018-07-20 08:35 METAR KW99 201235Z AUTO 00000KT 10SM CLR 17/15 A3012 RMK AO2 T01710152 =
2018-07-20 08:15 METAR KW99 201215Z AUTO 00000KT 10SM CLR 16/15 A3012 RMK AO2 T01630150 =
2018-07-20 07:55 METAR KW99 201155Z AUTO 00000KT 10SM CLR 15/14 A3013 RMK AO2 T01500143 10155
                 20126 =
2018-07-20 07:35 METAR KW99 201135Z AUTO 00000KT 10SM CLR 15/14 A3012 RMK AO2 T01460143 =
2018-07-20 07:15 METAR KW99 201115Z AUTO 00000KT 7SM CLR 14/14 A3012 RMK AO2 T01390137 =
2018-07-20 06:55 METAR KW99 201055Z AUTO 00000KT 5SM BR CLR 13/13 A3012 RMK AO2 T01290128 =
2018-07-20 06:35 METAR KW99 201035Z AUTO 00000KT 3SM BR CLR 13/13 A3012 RMK AO2 T01260126 =
2018-07-20 06:15 METAR KW99 201015Z AUTO 00000KT 1SM BR VV007 13/13 A3011 RMK AO2 T01320131 =
2018-07-20 05:55 METAR KW99 200955Z AUTO 00000KT 3SM BR CLR 13/13 A3011 RMK AO2 T01280126 =
2018-07-20 05:35 METAR KW99 200935Z AUTO 00000KT 2SM BR CLR 13/13 A3010 RMK AO2 T01330132 =
2018-07-20 05:15 METAR KW99 200915Z AUTO 00000KT 7SM CLR 13/13 A3010 RMK AO2 T01320130 =
2018-07-20 04:55 METAR KW99 200855Z AUTO 00000KT 2 1/2SM BR CLR 13/13 A3010 RMK AO2 VIS 3/4V5
                 T01330130 =
2018-07-20 04:35 METAR KW99 200835Z AUTO 00000KT 10SM CLR 14/13 A3010 RMK AO2 T01360134 =
2018-07-20 04:15 METAR KW99 200815Z AUTO 00000KT 10SM CLR 14/14 A3010 RMK AO2 T01360135 =
2018-07-20 03:55 METAR KW99 200755Z AUTO 00000KT 2SM BR CLR 14/14 A3010 RMK AO2 VIS 1V5 T01440143
                 =
2018-07-20 03:35 METAR KW99 200735Z AUTO 00000KT 5SM BR CLR 14/14 A3011 RMK AO2 T01390137 =
2018-07-20 03:15 METAR KW99 200715Z AUTO 00000KT 10SM CLR 14/14 A3010 RMK AO2 T01430141 =
2018-07-20 02:55 METAR KW99 200655Z AUTO 00000KT 7SM CLR 14/14 A3010 RMK AO2 T01440141 =
2018-07-20 02:35 METAR KW99 200635Z AUTO 00000KT 1 1/4SM BR VV007 14/14 A3010 RMK AO2 T01420139 =
2018-07-20 02:15 METAR KW99 200615Z AUTO 00000KT 5SM BR CLR 15/15 A3010 RMK AO2 T01490147 =
2018-07-20 01:55 METAR KW99 200555Z AUTO 00000KT 7SM CLR 15/15 A3010 RMK AO2 T01510148 10250
                 20147 402870109 =
2018-07-20 01:35 METAR KW99 200535Z AUTO 00000KT 10SM CLR 15/14 A3010 RMK AO2 T01480143 =
2018-07-20 01:15 METAR KW99 200515Z AUTO 00000KT 5SM BR CLR 16/16 A3010 RMK AO2 T01580155 =
2018-07-20 00:55 METAR KW99 200455Z AUTO 00000KT 10SM CLR 16/15 A3010 RMK AO2 T01560150 =
2018-07-20 00:35 METAR KW99 200435Z AUTO 00000KT 10SM SCT065 16/15 A3011 RMK AO2 T01580151 =
2018-07-20 00:15 METAR KW99 200415Z AUTO 00000KT 10SM SCT065 17/16 A3011 RMK AO2 T01690161 =
2018-07-19 23:55 METAR KW99 200355Z AUTO 00000KT 10SM CLR 17/16 A3010 RMK AO2 T01680160 =
2018-07-19 23:35 METAR KW99 200335Z AUTO 00000KT 10SM CLR 17/16 A3010 RMK AO2 T01700162 =
2018-07-19 23:15 METAR KW99 200315Z AUTO 00000KT 10SM CLR 18/16 A3010 RMK AO2 T01760162 =
2018-07-19 22:55 METAR KW99 200255Z AUTO 00000KT 10SM CLR 18/17 A3009 RMK AO2 T01760167 =
2018-07-19 22:35 METAR KW99 200235Z AUTO 00000KT 10SM CLR 18/16 A3009 RMK AO2 T01810163 =
2018-07-19 22:20 METAR KW99 200220Z AUTO 00000KT 10SM CLR 18/17 A3009 RMK AO2 T01830166 =
2018-07-19 21:55 METAR KW99 200155Z AUTO 28004KT 10SM CLR 18/17 A3007 RMK AO2 T01840168 =
2018-07-19 21:35 METAR KW99 200135Z AUTO 27003KT 10SM CLR 19/17 A3007 RMK AO2 T01890168 =
2018-07-19 21:15 METAR KW99 200115Z AUTO 28003KT 10SM CLR 20/17 A3007 RMK AO2 T01980174 =
2018-07-19 20:55 METAR KW99 200055Z AUTO 28003KT 10SM CLR 21/17 A3006 RMK AO2 T02050170 =
2018-07-19 20:35 METAR KW99 200035Z AUTO 29003KT 10SM CLR 21/17 A3008 RMK AO2 T02130171 =
2018-07-19 20:15 METAR KW99 200015Z AUTO 00000KT 10SM CLR 23/17 A3005 RMK AO2 T02310170 =
2018-07-19 19:55 METAR KW99 192355Z AUTO 11003KT 10SM CLR 25/15 A3005 RMK AO2 T02510151 10287
                 20251 =
2018-07-19 19:35 METAR KW99 192335Z AUTO 12004KT 10SM CLR 26/15 A3005 RMK AO2 T02580149 =
2018-07-19 19:15 METAR KW99 192315Z AUTO 12005KT 10SM CLR 26/15 A3005 RMK AO2 T02600146 =
2018-07-19 18:55 METAR KW99 192255Z AUTO 12005KT 10SM CLR 27/15 A3005 RMK AO2 T02660147 =
2018-07-19 18:35 METAR KW99 192235Z AUTO 11003KT 10SM SCT065 27/15 A3005 RMK AO2 T02720149 =
2018-07-19 18:15 METAR KW99 192215Z AUTO 10004KT 10SM SCT065 27/15 A3005 RMK AO2 T02710149 =
2018-07-19 17:55 METAR KW99 192155Z AUTO 11004KT 10SM SCT065 28/15 A3005 RMK AO2 T02770147 =
2018-07-19 17:35 METAR KW99 192135Z AUTO 11005KT 10SM CLR 28/15 A3005 RMK AO2 T02780147 =
2018-07-19 17:15 METAR KW99 192115Z AUTO 10005KT 10SM SCT065 28/14 A3006 RMK AO2 T02770144 =
2018-07-19 16:55 METAR KW99 192055Z AUTO 14008KT 10SM SCT065 28/15 A3006 RMK AO2 T02800146 =
2018-07-19 16:35 METAR KW99 192035Z AUTO 13005KT 10SM SCT060 27/15 A3007 RMK AO2 T02720152 =
2018-07-19 16:15 METAR KW99 192015Z AUTO 00000KT 10SM SCT060 27/14 A3007 RMK AO2 T02730142 =
2018-07-19 15:55 METAR KW99 191955Z AUTO 12007KT 10SM SCT060 27/14 A3007 RMK AO2 T02700144 =
2018-07-19 15:35 METAR KW99 191935Z AUTO 12005KT 10SM SCT060 28/15 A3007 RMK AO2 T02840151 =
2018-07-19 15:15 METAR KW99 191915Z AUTO 00000KT 10SM CLR 28/15 A3007 RMK AO2 T02820145 =
2018-07-19 14:55 METAR KW99 191855Z AUTO 13006KT 10SM SCT060 28/14 A3009 RMK AO2 T02800143 =
2018-07-19 14:35 METAR KW99 191835Z AUTO 15008KT 080V160 10SM SCT060 28/14 A3009 RMK AO2
                 T02840144 =
2018-07-19 14:15 METAR KW99 191815Z AUTO 11007KT 10SM CLR 28/15 A3010 RMK AO2 T02770145 =
2018-07-19 13:55 METAR KW99 191755Z AUTO 12003KT 10SM SCT055 27/15 A3010 RMK AO2 T02660145 10273
                 20145 =
2018-07-19 13:35 METAR KW99 191735Z AUTO 07003KT 10SM SCT055 26/15 A3010 RMK AO2 T02630148 =
2018-07-19 13:15 METAR KW99 191715Z AUTO 13003KT 10SM CLR 27/15 A3011 RMK AO2 T02670150 =
2018-07-19 12:55 METAR KW99 191655Z AUTO 09004KT 10SM CLR 26/15 A3012 RMK AO2 T02620150 =
2018-07-19 12:35 METAR KW99 191635Z AUTO 10003KT 10SM CLR 26/15 A3012 RMK AO2 T02630152 =

Support USWX by starting your Amazon purchase here.